sensor_id;sensor_type;location;lat;lon;timestamp;pressure;altitude;pressure_sealevel;temperature;humidity
8051;BME280;4068;42.158;24.732;2023-04-08T00:00:48;99870.19;;;7.73;72.93
8051;BME280;4068;42.158;24.732;2023-04-08T00:03:13;99882.16;;;7.79;72.12
8051;BME280;4068;42.158;24.732;2023-04-08T00:05:38;99882.63;;;7.86;71.44
8051;BME280;4068;42.158;24.732;2023-04-08T00:08:04;99873.19;;;7.82;71.55
8051;BME280;4068;42.158;24.732;2023-04-08T00:10:30;99868.47;;;7.72;70.34
8051;BME280;4068;42.158;24.732;2023-04-08T00:12:56;99851.44;;;7.64;69.69
8051;BME280;4068;42.158;24.732;2023-04-08T00:15:21;99885.25;;;7.86;69.49
8051;BME280;4068;42.158;24.732;2023-04-08T00:17:46;99882.63;;;7.86;69.54
8051;BME280;4068;42.158;24.732;2023-04-08T00:20:12;99879.97;;;7.86;68.49
8051;BME280;4068;42.158;24.732;2023-04-08T00:22:38;99863.88;;;7.76;68.55
8051;BME280;4068;42.158;24.732;2023-04-08T00:25:03;99885.63;;;7.94;68.25
8051;BME280;4068;42.158;24.732;2023-04-08T00:27:33;99892.78;;;7.92;68.31
8051;BME280;4068;42.158;24.732;2023-04-08T00:29:59;99890.03;;;7.93;68.90
8051;BME280;4068;42.158;24.732;2023-04-08T00:32:26;99879.97;;;7.86;69.28
8051;BME280;4068;42.158;24.732;2023-04-08T00:34:51;99889.19;;;7.93;69.65
8051;BME280;4068;42.158;24.732;2023-04-08T00:37:17;99882.47;;;8.02;69.24
8051;BME280;4068;42.158;24.732;2023-04-08T00:39:42;99887.13;;;7.98;69.52
8051;BME280;4068;42.158;24.732;2023-04-08T00:42:08;99879.78;;;7.89;70.70
8051;BME280;4068;42.158;24.732;2023-04-08T00:44:33;99875.09;;;7.80;70.94
8051;BME280;4068;42.158;24.732;2023-04-08T00:46:59;99888.19;;;7.81;72.31
8051;BME280;4068;42.158;24.732;2023-04-08T00:49:25;99878.41;;;7.69;72.16
8051;BME280;4068;42.158;24.732;2023-04-08T00:51:50;99863.81;;;7.63;72.55
8051;BME280;4068;42.158;24.732;2023-04-08T00:54:16;99875.97;;;7.66;73.74
8051;BME280;4068;42.158;24.732;2023-04-08T00:56:42;99897.25;;;7.77;73.67
8051;BME280;4068;42.158;24.732;2023-04-08T00:59:07;99904.13;;;7.80;73.84
8051;BME280;4068;42.158;24.732;2023-04-08T01:07:14;99903.66;;;7.73;75.70
8051;BME280;4068;42.158;24.732;2023-04-08T01:09:45;99914.44;;;7.70;77.03
8051;BME280;4068;42.158;24.732;2023-04-08T01:12:17;99895.38;;;7.65;77.92
8051;BME280;4068;42.158;24.732;2023-04-08T01:14:46;99920.72;;;7.82;78.80
8051;BME280;4068;42.158;24.732;2023-04-08T01:17:14;99901.13;;;7.71;83.42
8051;BME280;4068;42.158;24.732;2023-04-08T01:19:43;99918.56;;;7.88;86.53
8051;BME280;4068;42.158;24.732;2023-04-08T01:22:28;99916.94;;;7.86;90.41
8051;BME280;4068;42.158;24.732;2023-04-08T01:25:04;99916.84;;;7.87;94.06
8051;BME280;4068;42.158;24.732;2023-04-08T01:27:32;99908.66;;;7.77;96.33
8051;BME280;4068;42.158;24.732;2023-04-08T01:30:00;99910.72;;;7.72;99.11
8051;BME280;4068;42.158;24.732;2023-04-08T01:32:27;99912.63;;;7.70;100.00
8051;BME280;4068;42.158;24.732;2023-04-08T01:34:54;99890.94;;;7.51;100.00
8051;BME280;4068;42.158;24.732;2023-04-08T01:37:21;99908.66;;;7.63;100.00
8051;BME280;4068;42.158;24.732;2023-04-08T01:39:48;99911.69;;;7.71;100.00
8051;BME280;4068;42.158;24.732;2023-04-08T01:42:14;99908.09;;;7.72;100.00
8051;BME280;4068;42.158;24.732;2023-04-08T01:44:41;99895.88;;;7.57;100.00
8051;BME280;4068;42.158;24.732;2023-04-08T01:47:08;99911.22;;;7.65;100.00
8051;BME280;4068;42.158;24.732;2023-04-08T01:49:35;99912.91;;;7.66;100.00
8051;BME280;4068;42.158;24.732;2023-04-08T01:52:02;99921.78;;;7.65;100.00
8051;BME280;4068;42.158;24.732;2023-04-08T01:54:28;99922.34;;;7.55;100.00
8051;BME280;4068;42.158;24.732;2023-04-08T01:56:54;99907.91;;;7.47;100.00
8051;BME280;4068;42.158;24.732;2023-04-08T01:59:23;99884.28;;;7.31;100.00
8051;BME280;4068;42.158;24.732;2023-04-08T02:01:52;99900.00;;;7.32;100.00
8051;BME280;4068;42.158;24.732;2023-04-08T02:04:17;99937.31;;;7.55;100.00
8051;BME280;4068;42.158;24.732;2023-04-08T02:06:43;99934.88;;;7.52;100.00
8051;BME280;4068;42.158;24.732;2023-04-08T02:09:09;99911.69;;;7.28;100.00
8051;BME280;4068;42.158;24.732;2023-04-08T02:11:35;99930.09;;;7.44;100.00
8051;BME280;4068;42.158;24.732;2023-04-08T02:14:00;99928.47;;;7.41;100.00
8051;BME280;4068;42.158;24.732;2023-04-08T02:16:33;99926.03;;;7.38;100.00
8051;BME280;4068;42.158;24.732;2023-04-08T02:19:11;99934.59;;;7.42;100.00
8051;BME280;4068;42.158;24.732;2023-04-08T02:21:51;99941.28;;;7.33;100.00
8051;BME280;4068;42.158;24.732;2023-04-08T02:24:20;99945.53;;;7.36;100.00
8051;BME280;4068;42.158;24.732;2023-04-08T02:26:48;99920.06;;;7.20;100.00
8051;BME280;4068;42.158;24.732;2023-04-08T02:29:16;99948.56;;;7.30;100.00
8051;BME280;4068;42.158;24.732;2023-04-08T02:31:44;99938.72;;;7.17;100.00
8051;BME280;4068;42.158;24.732;2023-04-08T02:34:11;99906.88;;;7.06;100.00
8051;BME280;4068;42.158;24.732;2023-04-08T02:36:38;99944.41;;;7.25;100.00
8051;BME280;4068;42.158;24.732;2023-04-08T02:39:05;99941.00;;;7.23;100.00
8051;BME280;4068;42.158;24.732;2023-04-08T02:41:31;99945.44;;;7.23;100.00
8051;BME280;4068;42.158;24.732;2023-04-08T02:43:56;99940.06;;;7.24;100.00
8051;BME280;4068;42.158;24.732;2023-04-08T02:46:22;99931.34;;;7.08;100.00
8051;BME280;4068;42.158;24.732;2023-04-08T02:48:47;99945.63;;;7.20;100.00
8051;BME280;4068;42.158;24.732;2023-04-08T02:51:13;99932.03;;;7.12;100.00
8051;BME280;4068;42.158;24.732;2023-04-08T02:53:38;99947.19;;;7.08;100.00
8051;BME280;4068;42.158;24.732;2023-04-08T02:56:04;99945.88;;;7.15;100.00
8051;BME280;4068;42.158;24.732;2023-04-08T02:58:30;99947.00;;;7.11;100.00
8051;BME280;4068;42.158;24.732;2023-04-08T03:00:55;99957.91;;;7.05;100.00
8051;BME280;4068;42.158;24.732;2023-04-08T03:03:21;99970.91;;;7.08;100.00
8051;BME280;4068;42.158;24.732;2023-04-08T03:05:52;99969.06;;;7.10;100.00
8051;BME280;4068;42.158;24.732;2023-04-08T03:08:18;99963.97;;;7.07;100.00
8051;BME280;4068;42.158;24.732;2023-04-08T03:10:44;99984.69;;;7.13;100.00
8051;BME280;4068;42.158;24.732;2023-04-08T03:13:09;99973.38;;;7.11;100.00
8051;BME280;4068;42.158;24.732;2023-04-08T03:15:34;99958.41;;;7.12;100.00
8051;BME280;4068;42.158;24.732;2023-04-08T03:18:00;99962.56;;;7.16;100.00
8051;BME280;4068;42.158;24.732;2023-04-08T03:20:25;99968.31;;;7.22;100.00
8051;BME280;4068;42.158;24.732;2023-04-08T03:22:51;99973.78;;;7.34;100.00
8051;BME280;4068;42.158;24.732;2023-04-08T03:25:16;99968.59;;;7.32;100.00
8051;BME280;4068;42.158;24.732;2023-04-08T03:27:42;99968.97;;;7.26;100.00
8051;BME280;4068;42.158;24.732;2023-04-08T03:30:07;99965.94;;;7.18;100.00
8051;BME280;4068;42.158;24.732;2023-04-08T03:32:33;99964.44;;;7.14;100.00
8051;BME280;4068;42.158;24.732;2023-04-08T03:34:59;99924.63;;;6.88;100.00
8051;BME280;4068;42.158;24.732;2023-04-08T03:37:24;99956.06;;;7.07;100.00
8051;BME280;4068;42.158;24.732;2023-04-08T03:39:50;99943.59;;;6.95;100.00
8051;BME280;4068;42.158;24.732;2023-04-08T03:42:15;99968.19;;;7.09;100.00
8051;BME280;4068;42.158;24.732;2023-04-08T03:44:41;99964.34;;;7.15;100.00
8051;BME280;4068;42.158;24.732;2023-04-08T03:47:06;99950.78;;;7.07;100.00
8051;BME280;4068;42.158;24.732;2023-04-08T03:49:31;99978.00;;;7.22;100.00
8051;BME280;4068;42.158;24.732;2023-04-08T03:51:57;99936.50;;;6.95;100.00
8051;BME280;4068;42.158;24.732;2023-04-08T03:54:22;99966.31;;;7.12;100.00
8051;BME280;4068;42.158;24.732;2023-04-08T03:56:48;99984.56;;;7.00;100.00
8051;BME280;4068;42.158;24.732;2023-04-08T03:59:14;99985.31;;;7.02;100.00
8051;BME280;4068;42.158;24.732;2023-04-08T04:01:40;99986.66;;;7.09;100.00
8051;BME280;4068;42.158;24.732;2023-04-08T04:04:05;99955.03;;;6.79;100.00
8051;BME280;4068;42.158;24.732;2023-04-08T04:06:31;99980.78;;;6.90;100.00
8051;BME280;4068;42.158;24.732;2023-04-08T04:08:56;99987.84;;;7.04;100.00
8051;BME280;4068;42.158;24.732;2023-04-08T04:11:22;99994.22;;;7.16;100.00
8051;BME280;4068;42.158;24.732;2023-04-08T04:13:47;99989.97;;;7.13;100.00
8051;BME280;4068;42.158;24.732;2023-04-08T04:16:13;99987.50;;;7.10;100.00
8051;BME280;4068;42.158;24.732;2023-04-08T04:18:38;99999.19;;;7.06;100.00
8051;BME280;4068;42.158;24.732;2023-04-08T04:21:04;99996.53;;;7.06;100.00
8051;BME280;4068;42.158;24.732;2023-04-08T04:23:31;99970.88;;;6.94;100.00
8051;BME280;4068;42.158;24.732;2023-04-08T04:25:56;99973.19;;;7.00;100.00
8051;BME280;4068;42.158;24.732;2023-04-08T04:28:21;100008.53;;;7.12;100.00
8051;BME280;4068;42.158;24.732;2023-04-08T04:30:47;100008.25;;;7.16;100.00
8051;BME280;4068;42.158;24.732;2023-04-08T04:33:12;99996.97;;;7.29;100.00
8051;BME280;4068;42.158;24.732;2023-04-08T04:35:38;99992.44;;;7.31;100.00
8051;BME280;4068;42.158;24.732;2023-04-08T04:38:04;99962.00;;;7.25;100.00
8051;BME280;4068;42.158;24.732;2023-04-08T04:40:35;99995.97;;;7.46;100.00
8051;BME280;4068;42.158;24.732;2023-04-08T04:43:00;99976.72;;;7.43;100.00
8051;BME280;4068;42.158;24.732;2023-04-08T04:45:25;99998.31;;;7.50;100.00
8051;BME280;4068;42.158;24.732;2023-04-08T04:47:51;100001.53;;;7.55;100.00
8051;BME280;4068;42.158;24.732;2023-04-08T04:50:16;99978.53;;;7.43;100.00
8051;BME280;4068;42.158;24.732;2023-04-08T04:52:42;99993.31;;;7.46;100.00
8051;BME280;4068;42.158;24.732;2023-04-08T04:55:08;100005.75;;;7.58;100.00
8051;BME280;4068;42.158;24.732;2023-04-08T04:57:33;100004.28;;;7.68;100.00
8051;BME280;4068;42.158;24.732;2023-04-08T04:59:59;100006.53;;;7.74;100.00
8051;BME280;4068;42.158;24.732;2023-04-08T05:02:24;100010.22;;;7.86;100.00
8051;BME280;4068;42.158;24.732;2023-04-08T05:04:50;99997.00;;;7.86;100.00
8051;BME280;4068;42.158;24.732;2023-04-08T05:07:18;100007.75;;;7.98;100.00
8051;BME280;4068;42.158;24.732;2023-04-08T05:09:43;99995.47;;;7.97;100.00
8051;BME280;4068;42.158;24.732;2023-04-08T05:12:09;100020.41;;;8.07;100.00
8051;BME280;4068;42.158;24.732;2023-04-08T05:14:34;100027.63;;;8.18;100.00
8051;BME280;4068;42.158;24.732;2023-04-08T05:17:00;100021.22;;;8.22;100.00
8051;BME280;4068;42.158;24.732;2023-04-08T05:19:25;100030.91;;;8.36;100.00
8051;BME280;4068;42.158;24.732;2023-04-08T05:21:50;100020.84;;;8.28;100.00
8051;BME280;4068;42.158;24.732;2023-04-08T05:24:16;100015.47;;;8.29;100.00
8051;BME280;4068;42.158;24.732;2023-04-08T05:26:41;100040.56;;;8.37;100.00
8051;BME280;4068;42.158;24.732;2023-04-08T05:29:07;100041.09;;;8.42;100.00
8051;BME280;4068;42.158;24.732;2023-04-08T05:31:32;100039.03;;;8.47;100.00
8051;BME280;4068;42.158;24.732;2023-04-08T05:33:58;100034.69;;;8.46;100.00
8051;BME280;4068;42.158;24.732;2023-04-08T05:36:23;100048.25;;;8.69;100.00
8051;BME280;4068;42.158;24.732;2023-04-08T05:38:48;100041.16;;;8.69;100.00
8051;BME280;4068;42.158;24.732;2023-04-08T05:41:14;100048.75;;;8.88;100.00
8051;BME280;4068;42.158;24.732;2023-04-08T05:43:39;100051.63;;;8.98;100.00
8051;BME280;4068;42.158;24.732;2023-04-08T05:46:09;100050.22;;;9.20;100.00
8051;BME280;4068;42.158;24.732;2023-04-08T05:48:35;100049.19;;;9.35;100.00
8051;BME280;4068;42.158;24.732;2023-04-08T05:51:01;100021.63;;;9.25;100.00
8051;BME280;4068;42.158;24.732;2023-04-08T05:53:27;100019.94;;;9.24;100.00
8051;BME280;4068;42.158;24.732;2023-04-08T05:55:52;100053.53;;;9.62;100.00
8051;BME280;4068;42.158;24.732;2023-04-08T05:58:17;100061.91;;;9.68;100.00
8051;BME280;4068;42.158;24.732;2023-04-08T06:00:43;100034.94;;;9.76;100.00
8051;BME280;4068;42.158;24.732;2023-04-08T06:03:08;100059.81;;;9.99;100.00
8051;BME280;4068;42.158;24.732;2023-04-08T06:05:34;100056.19;;;10.13;100.00
8051;BME280;4068;42.158;24.732;2023-04-08T06:07:59;100056.38;;;10.23;100.00
8051;BME280;4068;42.158;24.732;2023-04-08T06:10:25;100046.19;;;10.30;100.00
8051;BME280;4068;42.158;24.732;2023-04-08T06:12:50;100058.31;;;10.34;100.00
8051;BME280;4068;42.158;24.732;2023-04-08T06:15:16;100051.59;;;10.28;100.00
8051;BME280;4068;42.158;24.732;2023-04-08T06:17:41;100059.41;;;10.56;99.28
8051;BME280;4068;42.158;24.732;2023-04-08T06:20:07;100074.16;;;10.60;98.15
8051;BME280;4068;42.158;24.732;2023-04-08T06:22:35;100061.56;;;10.50;97.76
8051;BME280;4068;42.158;24.732;2023-04-08T06:25:01;100048.41;;;10.49;99.17
8051;BME280;4068;42.158;24.732;2023-04-08T06:27:27;100073.75;;;10.77;98.58
8051;BME280;4068;42.158;24.732;2023-04-08T06:29:52;100071.31;;;11.22;95.33
8051;BME280;4068;42.158;24.732;2023-04-08T06:32:19;100064.44;;;11.55;93.30
8051;BME280;4068;42.158;24.732;2023-04-08T06:34:45;100060.59;;;11.71;90.18
8051;BME280;4068;42.158;24.732;2023-04-08T06:37:10;100064.94;;;11.72;89.01
8051;BME280;4068;42.158;24.732;2023-04-08T06:39:36;100063.75;;;11.76;89.69
8051;BME280;4068;42.158;24.732;2023-04-08T06:42:01;100052.75;;;11.69;88.17
8051;BME280;4068;42.158;24.732;2023-04-08T06:44:27;100067.00;;;11.80;88.66
8051;BME280;4068;42.158;24.732;2023-04-08T06:46:52;100043.25;;;12.01;86.87
8051;BME280;4068;42.158;24.732;2023-04-08T06:49:18;100054.16;;;12.20;85.83
8051;BME280;4068;42.158;24.732;2023-04-08T06:51:43;100052.19;;;12.22;86.90
8051;BME280;4068;42.158;24.732;2023-04-08T06:54:08;100059.94;;;12.25;85.17
8051;BME280;4068;42.158;24.732;2023-04-08T06:56:36;100057.31;;;12.14;85.18
8051;BME280;4068;42.158;24.732;2023-04-08T06:59:02;100043.25;;;12.12;84.16
8051;BME280;4068;42.158;24.732;2023-04-08T07:01:29;100045.34;;;11.97;88.02
8051;BME280;4068;42.158;24.732;2023-04-08T07:03:56;100051.44;;;11.75;86.46
8051;BME280;4068;42.158;24.732;2023-04-08T07:06:21;100048.22;;;12.05;88.49
8051;BME280;4068;42.158;24.732;2023-04-08T07:08:47;100029.13;;;12.12;85.06
8051;BME280;4068;42.158;24.732;2023-04-08T07:11:12;100049.31;;;12.03;85.05
8051;BME280;4068;42.158;24.732;2023-04-08T07:13:38;100023.91;;;11.87;86.38
8051;BME280;4068;42.158;24.732;2023-04-08T07:16:03;100058.34;;;12.46;84.71
8051;BME280;4068;42.158;24.732;2023-04-08T07:18:30;100024.00;;;12.31;81.98
8051;BME280;4068;42.158;24.732;2023-04-08T07:20:56;100022.66;;;12.48;81.83
8051;BME280;4068;42.158;24.732;2023-04-08T07:23:22;100038.69;;;12.69;77.89
8051;BME280;4068;42.158;24.732;2023-04-08T07:25:47;100034.88;;;12.94;77.58
8051;BME280;4068;42.158;24.732;2023-04-08T07:28:13;100061.03;;;12.89;77.34
8051;BME280;4068;42.158;24.732;2023-04-08T07:30:38;100033.81;;;12.31;80.98
8051;BME280;4068;42.158;24.732;2023-04-08T07:33:03;100064.47;;;13.12;77.84
8051;BME280;4068;42.158;24.732;2023-04-08T07:35:29;100043.81;;;13.26;75.92
8051;BME280;4068;42.158;24.732;2023-04-08T07:37:56;100056.44;;;13.87;74.00
8051;BME280;4068;42.158;24.732;2023-04-08T07:40:22;100050.50;;;14.05;69.36
8051;BME280;4068;42.158;24.732;2023-04-08T07:42:48;100044.66;;;14.21;68.99
8051;BME280;4068;42.158;24.732;2023-04-08T07:45:13;100037.44;;;14.42;69.56
8051;BME280;4068;42.158;24.732;2023-04-08T07:47:39;100035.25;;;14.26;68.91
8051;BME280;4068;42.158;24.732;2023-04-08T07:50:06;100034.66;;;14.54;67.37
8051;BME280;4068;42.158;24.732;2023-04-08T07:52:31;100035.41;;;14.65;66.68
8051;BME280;4068;42.158;24.732;2023-04-08T07:54:57;100046.97;;;15.05;65.26
8051;BME280;4068;42.158;24.732;2023-04-08T07:57:23;100056.94;;;15.03;64.47
8051;BME280;4068;42.158;24.732;2023-04-08T07:59:48;100058.91;;;14.91;64.50
8051;BME280;4068;42.158;24.732;2023-04-08T08:02:13;100059.59;;;14.83;64.79
8051;BME280;4068;42.158;24.732;2023-04-08T08:04:39;100048.22;;;14.41;65.86
8051;BME280;4068;42.158;24.732;2023-04-08T08:07:04;100054.03;;;14.15;66.72
8051;BME280;4068;42.158;24.732;2023-04-08T08:09:30;100054.94;;;14.76;65.10
8051;BME280;4068;42.158;24.732;2023-04-08T08:11:55;100061.03;;;15.07;61.19
8051;BME280;4068;42.158;24.732;2023-04-08T08:14:21;100061.19;;;15.25;59.60
8051;BME280;4068;42.158;24.732;2023-04-08T08:16:46;100069.03;;;15.36;60.24
8051;BME280;4068;42.158;24.732;2023-04-08T08:19:12;100021.34;;;14.73;65.29
8051;BME280;4068;42.158;24.732;2023-04-08T08:21:38;100064.53;;;15.17;62.30
8051;BME280;4068;42.158;24.732;2023-04-08T08:24:04;100059.03;;;15.39;59.99
8051;BME280;4068;42.158;24.732;2023-04-08T08:26:29;100050.56;;;15.82;59.69
8051;BME280;4068;42.158;24.732;2023-04-08T08:28:55;100059.38;;;16.02;58.86
8051;BME280;4068;42.158;24.732;2023-04-08T08:31:20;100050.75;;;16.09;58.15
8051;BME280;4068;42.158;24.732;2023-04-08T08:33:46;100054.34;;;15.90;59.57
8051;BME280;4068;42.158;24.732;2023-04-08T08:36:11;100056.75;;;15.83;57.08
8051;BME280;4068;42.158;24.732;2023-04-08T08:38:37;100053.88;;;16.04;55.21
8051;BME280;4068;42.158;24.732;2023-04-08T08:41:03;100042.09;;;15.87;57.16
8051;BME280;4068;42.158;24.732;2023-04-08T08:43:29;100034.69;;;15.51;60.28
8051;BME280;4068;42.158;24.732;2023-04-08T08:45:58;100032.59;;;15.55;62.14
8051;BME280;4068;42.158;24.732;2023-04-08T08:48:23;100036.41;;;15.43;61.92
8051;BME280;4068;42.158;24.732;2023-04-08T08:50:49;100010.66;;;14.63;63.96
8051;BME280;4068;42.158;24.732;2023-04-08T08:53:14;100020.94;;;14.88;63.70
8051;BME280;4068;42.158;24.732;2023-04-08T08:55:40;100039.91;;;14.75;61.92
8051;BME280;4068;42.158;24.732;2023-04-08T08:58:06;100034.38;;;14.57;63.03
8051;BME280;4068;42.158;24.732;2023-04-08T09:00:39;100041.03;;;14.82;62.10
8051;BME280;4068;42.158;24.732;2023-04-08T09:03:17;99999.97;;;14.63;64.81
8051;BME280;4068;42.158;24.732;2023-04-08T09:05:59;100014.91;;;14.95;62.65
8051;BME280;4068;42.158;24.732;2023-04-08T09:08:28;100037.75;;;15.76;59.20
8051;BME280;4068;42.158;24.732;2023-04-08T09:10:56;100005.63;;;15.86;54.92
8051;BME280;4068;42.158;24.732;2023-04-08T09:13:35;100044.75;;;15.87;54.70
8051;BME280;4068;42.158;24.732;2023-04-08T09:16:05;100028.66;;;15.59;55.37
8051;BME280;4068;42.158;24.732;2023-04-08T09:18:33;100030.09;;;16.01;54.65
8051;BME280;4068;42.158;24.732;2023-04-08T09:20:59;100008.16;;;15.87;54.94
8051;BME280;4068;42.158;24.732;2023-04-08T09:26:12;100034.69;;;15.61;53.73
8051;BME280;4068;42.158;24.732;2023-04-08T09:28:39;100036.38;;;15.52;54.70
8051;BME280;4068;42.158;24.732;2023-04-08T09:31:33;100037.97;;;16.02;54.16
8051;BME280;4068;42.158;24.732;2023-04-08T09:34:09;100031.16;;;16.18;53.93
8051;BME280;4068;42.158;24.732;2023-04-08T09:36:35;100030.78;;;16.77;53.92
8051;BME280;4068;42.158;24.732;2023-04-08T09:39:00;100037.28;;;17.02;49.38
8051;BME280;4068;42.158;24.732;2023-04-08T09:41:27;100031.06;;;16.37;50.63
8051;BME280;4068;42.158;24.732;2023-04-08T09:43:54;100029.81;;;16.32;51.42
8051;BME280;4068;42.158;24.732;2023-04-08T09:53:05;100008.44;;;16.22;50.91
8051;BME280;4068;42.158;24.732;2023-04-08T09:55:07;100031.03;;;16.10;51.88
8051;BME280;4068;42.158;24.732;2023-04-08T09:57:43;100018.56;;;16.00;52.14
8051;BME280;4068;42.158;24.732;2023-04-08T10:00:14;100026.78;;;16.17;50.98
8051;BME280;4068;42.158;24.732;2023-04-08T10:03:14;100033.78;;;15.90;51.03
8051;BME280;4068;42.158;24.732;2023-04-08T10:05:45;100032.53;;;15.84;50.78
8051;BME280;4068;42.158;24.732;2023-04-08T10:08:11;99990.34;;;15.68;50.69
8051;BME280;4068;42.158;24.732;2023-04-08T10:10:38;100016.16;;;15.97;50.37
8051;BME280;4068;42.158;24.732;2023-04-08T10:13:06;100020.03;;;16.13;49.69
8051;BME280;4068;42.158;24.732;2023-04-08T10:15:33;100015.16;;;15.98;51.72
8051;BME280;4068;42.158;24.732;2023-04-08T10:22:59;99992.41;;;17.48;46.64
8051;BME280;4068;42.158;24.732;2023-04-08T10:25:31;99972.31;;;17.87;47.57
8051;BME280;4068;42.158;24.732;2023-04-08T10:27:58;100000.19;;;18.20;46.68
8051;BME280;4068;42.158;24.732;2023-04-08T10:32:56;99982.41;;;17.32;49.57
8051;BME280;4068;42.158;24.732;2023-04-08T10:35:37;99980.34;;;17.79;48.63
8051;BME280;4068;42.158;24.732;2023-04-08T10:38:06;99986.63;;;18.30;46.92
8051;BME280;4068;42.158;24.732;2023-04-08T10:40:36;99977.50;;;18.66;46.60
8051;BME280;4068;42.158;24.732;2023-04-08T10:43:03;99973.78;;;18.67;45.42
8051;BME280;4068;42.158;24.732;2023-04-08T10:45:32;99971.84;;;19.10;44.19
8051;BME280;4068;42.158;24.732;2023-04-08T10:48:30;99973.84;;;19.00;43.95
8051;BME280;4068;42.158;24.732;2023-04-08T10:50:58;99967.75;;;18.81;44.98
8051;BME280;4068;42.158;24.732;2023-04-08T10:53:34;99939.16;;;18.39;45.39
8051;BME280;4068;42.158;24.732;2023-04-08T10:56:04;99943.13;;;18.10;46.61
8051;BME280;4068;42.158;24.732;2023-04-08T10:58:31;99945.16;;;17.82;46.82
8051;BME280;4068;42.158;24.732;2023-04-08T11:01:02;99954.09;;;17.56;47.69
8051;BME280;4068;42.158;24.732;2023-04-08T11:03:31;99955.03;;;17.47;48.18
8051;BME280;4068;42.158;24.732;2023-04-08T11:05:58;99950.66;;;17.46;48.18
8051;BME280;4068;42.158;24.732;2023-04-08T11:08:31;99943.75;;;17.69;48.85
8051;BME280;4068;42.158;24.732;2023-04-08T11:11:00;99947.56;;;17.32;48.56
8051;BME280;4068;42.158;24.732;2023-04-08T11:13:27;99930.53;;;17.41;49.52
8051;BME280;4068;42.158;24.732;2023-04-08T11:15:54;99936.06;;;17.74;48.87
8051;BME280;4068;42.158;24.732;2023-04-08T11:18:19;99931.00;;;17.71;48.04
8051;BME280;4068;42.158;24.732;2023-04-08T11:20:46;99923.28;;;17.60;48.53
8051;BME280;4068;42.158;24.732;2023-04-08T11:23:14;99921.09;;;17.64;49.00
8051;BME280;4068;42.158;24.732;2023-04-08T11:25:44;99921.00;;;18.33;47.68
8051;BME280;4068;42.158;24.732;2023-04-08T11:28:10;99930.41;;;18.20;47.24
8051;BME280;4068;42.158;24.732;2023-04-08T11:30:38;99901.00;;;18.02;47.51
8051;BME280;4068;42.158;24.732;2023-04-08T11:33:03;99898.69;;;18.24;47.54
8051;BME280;4068;42.158;24.732;2023-04-08T11:35:29;99911.16;;;18.50;46.74
8051;BME280;4068;42.158;24.732;2023-04-08T11:37:55;99898.84;;;18.22;47.66
8051;BME280;4068;42.158;24.732;2023-04-08T11:40:21;99913.44;;;18.20;47.78
8051;BME280;4068;42.158;24.732;2023-04-08T11:42:48;99905.19;;;18.05;47.93
8051;BME280;4068;42.158;24.732;2023-04-08T11:45:15;99895.84;;;17.83;48.10
8051;BME280;4068;42.158;24.732;2023-04-08T11:47:42;99904.88;;;18.16;48.72
8051;BME280;4068;42.158;24.732;2023-04-08T11:50:08;99898.91;;;18.39;48.18
8051;BME280;4068;42.158;24.732;2023-04-08T11:52:45;99890.56;;;17.91;49.03
8051;BME280;4068;42.158;24.732;2023-04-08T11:55:21;99858.75;;;17.62;49.22
8051;BME280;4068;42.158;24.732;2023-04-08T11:57:48;99882.13;;;17.86;49.08
8051;BME280;4068;42.158;24.732;2023-04-08T12:00:13;99878.00;;;18.00;48.45
8051;BME280;4068;42.158;24.732;2023-04-08T12:02:39;99883.09;;;17.76;49.67
8051;BME280;4068;42.158;24.732;2023-04-08T12:05:05;99885.41;;;17.63;50.56
8051;BME280;4068;42.158;24.732;2023-04-08T12:07:31;99861.19;;;17.47;49.62
8051;BME280;4068;42.158;24.732;2023-04-08T12:09:57;99850.69;;;17.27;50.34
8051;BME280;4068;42.158;24.732;2023-04-08T12:12:23;99839.75;;;17.47;49.97
8051;BME280;4068;42.158;24.732;2023-04-08T12:14:48;99875.97;;;17.93;49.33
8051;BME280;4068;42.158;24.732;2023-04-08T12:17:14;99867.00;;;18.44;49.02
8051;BME280;4068;42.158;24.732;2023-04-08T12:19:39;99874.22;;;18.68;47.65
8051;BME280;4068;42.158;24.732;2023-04-08T12:22:05;99849.75;;;18.63;47.19
8051;BME280;4068;42.158;24.732;2023-04-08T12:24:30;99864.81;;;18.39;47.70
8051;BME280;4068;42.158;24.732;2023-04-08T12:26:56;99862.28;;;18.29;48.88
8051;BME280;4068;42.158;24.732;2023-04-08T12:29:21;99845.59;;;17.85;50.25
8051;BME280;4068;42.158;24.732;2023-04-08T12:31:47;99859.00;;;17.85;50.07
8051;BME280;4068;42.158;24.732;2023-04-08T12:34:12;99845.97;;;17.98;49.92
8051;BME280;4068;42.158;24.732;2023-04-08T12:36:38;99847.34;;;18.27;49.45
8051;BME280;4068;42.158;24.732;2023-04-08T12:39:03;99839.50;;;18.42;49.03
8051;BME280;4068;42.158;24.732;2023-04-08T12:41:29;99840.69;;;18.56;47.98
8051;BME280;4068;42.158;24.732;2023-04-08T12:43:54;99835.31;;;18.64;47.43
8051;BME280;4068;42.158;24.732;2023-04-08T12:46:20;99824.22;;;18.59;47.56
8051;BME280;4068;42.158;24.732;2023-04-08T12:48:45;99843.19;;;18.49;47.63
8051;BME280;4068;42.158;24.732;2023-04-08T12:51:12;99815.78;;;17.96;48.65
8051;BME280;4068;42.158;24.732;2023-04-08T12:53:38;99835.44;;;18.29;48.42
8051;BME280;4068;42.158;24.732;2023-04-08T12:56:03;99834.97;;;18.26;48.50
8051;BME280;4068;42.158;24.732;2023-04-08T12:58:29;99827.41;;;18.54;47.17
8051;BME280;4068;42.158;24.732;2023-04-08T13:00:54;99833.94;;;18.68;47.08
8051;BME280;4068;42.158;24.732;2023-04-08T13:03:20;99822.84;;;18.14;48.32
8051;BME280;4068;42.158;24.732;2023-04-08T13:05:45;99815.16;;;18.19;48.60
8051;BME280;4068;42.158;24.732;2023-04-08T13:08:11;99834.06;;;18.01;49.29
8051;BME280;4068;42.158;24.732;2023-04-08T13:10:37;99801.88;;;18.01;48.66
8051;BME280;4068;42.158;24.732;2023-04-08T13:13:02;99796.19;;;18.20;48.08
8051;BME280;4068;42.158;24.732;2023-04-08T13:15:28;99804.91;;;18.55;47.90
8051;BME280;4068;42.158;24.732;2023-04-08T13:17:53;99798.66;;;18.79;47.71
8051;BME280;4068;42.158;24.732;2023-04-08T13:20:19;99807.38;;;19.06;46.98
8051;BME280;4068;42.158;24.732;2023-04-08T13:22:47;99800.19;;;18.99;45.97
8051;BME280;4068;42.158;24.732;2023-04-08T13:25:13;99784.53;;;19.02;46.05
8051;BME280;4068;42.158;24.732;2023-04-08T13:27:38;99777.16;;;18.79;46.33